createdAt,value
2018-01-10T00:02:15.597Z,6.20
2018-01-10T00:04:43.127Z,6.10
2018-01-10T00:07:10.612Z,6.20
2018-01-10T00:09:38.094Z,6.20
2018-01-10T00:12:05.709Z,6.20
2018-01-10T00:14:33.190Z,6.20
2018-01-10T00:17:00.694Z,6.20
2018-01-10T00:19:28.172Z,6.20
2018-01-10T00:21:56.426Z,6.20
2018-01-10T00:24:24.935Z,6.10
2018-01-10T00:26:52.535Z,6.20
2018-01-10T00:29:20.027Z,6.10
2018-01-10T00:31:47.511Z,6.00
2018-01-10T00:34:14.991Z,6.00
2018-01-10T00:36:42.460Z,6.00
2018-01-10T00:39:09.955Z,6.00
2018-01-10T00:41:43.835Z,5.90
2018-01-10T00:44:11.322Z,5.90
2018-01-10T00:46:38.836Z,5.90
2018-01-10T00:49:06.377Z,5.80
2018-01-10T00:51:34.627Z,5.80
2018-01-10T00:54:02.141Z,5.80
2018-01-10T00:56:29.668Z,5.80
2018-01-10T00:58:57.146Z,5.80
2018-01-10T01:01:24.623Z,5.80
2018-01-10T01:03:53.237Z,5.80
2018-01-10T01:06:20.720Z,5.80
2018-01-10T01:08:51.291Z,6.00
2018-01-10T01:11:18.817Z,5.80
2018-01-10T01:13:46.287Z,5.80
2018-01-10T01:16:13.757Z,5.80
2018-01-10T01:18:41.302Z,5.80
2018-01-10T01:21:08.767Z,5.80
2018-01-10T01:23:36.256Z,5.90
2018-01-10T01:26:04.511Z,5.90
2018-01-10T01:28:31.987Z,5.20
2018-01-10T01:30:59.470Z,5.90
2018-01-10T01:33:26.939Z,5.90
2018-01-10T01:35:54.446Z,5.80
2018-01-10T01:38:21.928Z,5.80
2018-01-10T01:40:49.436Z,5.90
2018-01-10T01:43:16.915Z,5.90
2018-01-10T01:45:44.402Z,5.90
2018-01-10T01:48:11.912Z,5.90
2018-01-10T01:50:39.380Z,5.90
2018-01-10T01:53:06.924Z,5.90
2018-01-10T01:55:34.433Z,5.90
2018-01-10T01:58:01.907Z,5.90
2018-01-10T02:00:29.396Z,5.80
2018-01-10T02:02:56.923Z,5.70
2018-01-10T02:05:24.420Z,5.70
2018-01-10T02:07:51.896Z,5.70
2018-01-10T02:10:19.362Z,5.60
2018-01-10T02:12:46.859Z,5.60
2018-01-10T02:15:14.371Z,5.60
2018-01-10T02:17:42.617Z,5.60
2018-01-10T02:20:10.137Z,5.60
2018-01-10T02:22:37.621Z,5.50
2018-01-10T02:25:05.118Z,2.50
2018-01-10T02:27:32.614Z,5.50
2018-01-10T02:30:00.118Z,5.50
2018-01-10T02:32:27.617Z,5.50
2018-01-10T02:34:55.102Z,5.50
2018-01-10T02:37:22.586Z,5.60
2018-01-10T02:39:50.091Z,5.50
2018-01-10T02:42:29.160Z,5.50
2018-01-10T02:44:56.633Z,5.60
2018-01-10T02:47:24.092Z,5.50
2018-01-10T02:49:51.563Z,5.50
2018-01-10T02:52:19.838Z,5.60
2018-01-10T02:54:47.289Z,5.60
2018-01-10T02:57:14.754Z,5.50
2018-01-10T02:59:42.240Z,5.60
2018-01-10T03:02:09.698Z,5.60
2018-01-10T03:04:37.177Z,5.60
2018-01-10T03:07:04.656Z,5.60
2018-01-10T03:09:32.130Z,5.60
2018-01-10T03:11:59.597Z,5.60
2018-01-10T03:14:27.069Z,5.60
2018-01-10T03:19:29.091Z,5.50
2018-01-10T03:21:56.594Z,5.50
2018-01-10T03:24:24.841Z,5.50
2018-01-10T03:26:52.342Z,5.50
2018-01-10T03:29:20.637Z,5.50
2018-01-10T03:31:48.137Z,5.60
2018-01-10T03:34:15.609Z,5.50
2018-01-10T03:36:43.084Z,5.50
2018-01-10T03:39:10.584Z,5.40
2018-01-10T03:41:38.094Z,5.50
2018-01-10T03:44:06.343Z,5.50
2018-01-10T03:46:34.600Z,5.50
2018-01-10T03:49:02.092Z,5.40
2018-01-10T03:51:29.572Z,5.50
2018-01-10T03:53:57.819Z,5.50
2018-01-10T03:56:25.316Z,5.50
2018-01-10T03:58:52.824Z,5.50
2018-01-10T04:01:20.307Z,5.50
2018-01-10T04:03:48.663Z,5.50
2018-01-10T04:06:16.156Z,5.50
2018-01-10T04:08:44.369Z,5.50
2018-01-10T04:11:11.862Z,5.50
2018-01-10T04:13:39.327Z,5.50
2018-01-10T04:16:07.584Z,5.50
2018-01-10T04:18:35.046Z,5.40
2018-01-10T04:21:02.546Z,5.50
2018-01-10T04:23:30.307Z,5.50
2018-01-10T04:25:58.550Z,5.50
2018-01-10T04:28:26.056Z,5.50
2018-01-10T04:30:53.844Z,5.50
2018-01-10T04:33:21.372Z,5.50
2018-01-10T04:35:48.859Z,5.50
2018-01-10T04:38:16.337Z,5.50
2018-01-10T04:40:43.841Z,5.40
2018-01-10T04:43:11.347Z,5.60
2018-01-10T04:45:38.828Z,5.50
2018-01-10T04:48:06.295Z,5.50
2018-01-10T04:50:40.228Z,5.60
2018-01-10T04:53:08.475Z,5.50
2018-01-10T04:55:36.723Z,5.60
2018-01-10T04:58:04.182Z,5.70
2018-01-10T05:00:31.667Z,5.60
2018-01-10T05:02:59.927Z,5.70
2018-01-10T05:05:27.399Z,5.70
2018-01-10T05:07:54.892Z,5.70
2018-01-10T05:10:22.361Z,5.70
2018-01-10T05:12:49.855Z,5.70
2018-01-10T05:15:17.323Z,5.80
2018-01-10T05:17:45.587Z,5.80
2018-01-10T05:20:13.044Z,5.80
2018-01-10T05:22:40.511Z,5.80
2018-01-10T05:25:08.773Z,5.70
2018-01-10T05:27:36.288Z,5.70
2018-01-10T05:30:03.767Z,5.80
2018-01-10T05:32:34.326Z,5.80
2018-01-10T05:35:02.576Z,5.70
2018-01-10T05:37:30.052Z,5.80
2018-01-10T05:39:57.515Z,5.80
2018-01-10T05:42:25.021Z,5.80
2018-01-10T05:44:52.516Z,5.70
2018-01-10T05:47:19.995Z,5.80
2018-01-10T05:49:48.252Z,5.80
2018-01-10T05:52:16.519Z,5.80
2018-01-10T05:54:44.004Z,5.80
2018-01-10T05:57:12.240Z,5.80
2018-01-10T05:59:39.735Z,5.80
2018-01-10T06:02:08.049Z,5.80
2018-01-10T06:04:36.263Z,5.80
2018-01-10T06:07:03.732Z,5.90
2018-01-10T06:09:31.199Z,5.80
2018-01-10T06:12:01.272Z,5.70
2018-01-10T06:14:28.761Z,5.80
2018-01-10T06:16:56.238Z,5.70
2018-01-10T06:19:24.488Z,5.60
2018-01-10T06:21:51.968Z,5.70
2018-01-10T06:24:20.225Z,5.60
2018-01-10T06:26:47.706Z,5.60
2018-01-10T06:29:15.961Z,5.60
2018-01-10T06:31:43.433Z,5.60
2018-01-10T06:34:11.704Z,5.50
2018-01-10T06:36:39.952Z,5.50
2018-01-10T06:39:07.425Z,5.50
2018-01-10T06:41:34.920Z,5.50
2018-01-10T06:44:02.421Z,5.50
2018-01-10T06:46:29.906Z,5.50
2018-01-10T06:48:57.363Z,5.50
2018-01-10T06:51:25.605Z,5.50
2018-01-10T06:53:53.100Z,5.50
2018-01-10T06:56:20.587Z,5.50
2018-01-10T06:58:48.077Z,5.50
2018-01-10T07:01:15.545Z,5.60
2018-01-10T07:03:43.059Z,5.60
2018-01-10T07:06:10.574Z,5.50
2018-01-10T07:08:38.086Z,5.50
2018-01-10T07:11:05.558Z,5.50
2018-01-10T07:13:33.049Z,5.60
2018-01-10T07:16:00.531Z,5.60
2018-01-10T07:18:28.782Z,5.70
2018-01-10T07:20:57.032Z,5.60
2018-01-10T07:23:24.522Z,5.60
2018-01-10T07:25:52.020Z,5.60
2018-01-10T07:28:19.496Z,5.60
2018-01-10T07:30:46.981Z,5.60
2018-01-10T07:33:14.462Z,5.60
2018-01-10T07:35:42.732Z,5.60
2018-01-10T07:38:10.985Z,5.50
2018-01-10T07:40:38.456Z,5.60
2018-01-10T07:43:06.728Z,5.40
2018-01-10T07:45:34.188Z,5.50
2018-01-10T07:48:01.687Z,5.30
2018-01-10T07:50:29.143Z,5.40
2018-01-10T07:52:56.735Z,5.30
2018-01-10T07:55:24.211Z,5.40
2018-01-10T07:57:51.669Z,5.40
2018-01-10T08:00:19.154Z,5.40
2018-01-10T08:02:47.396Z,5.40
2018-01-10T08:05:14.853Z,5.40
2018-01-10T08:07:42.340Z,5.50
2018-01-10T08:10:10.608Z,5.30
2018-01-10T08:12:38.089Z,5.50
2018-01-10T08:15:05.559Z,5.40
2018-01-10T08:17:33.052Z,5.40
2018-01-10T08:20:00.549Z,5.50
2018-01-10T08:22:28.846Z,5.40
2018-01-10T08:24:57.073Z,5.40
2018-01-10T08:27:24.529Z,5.40
2018-01-10T08:29:52.013Z,5.50
2018-01-10T08:32:20.296Z,5.60
2018-01-10T08:34:48.525Z,5.60
2018-01-10T08:37:16.006Z,5.60
2018-01-10T08:39:44.246Z,5.60
2018-01-10T08:42:11.706Z,5.60
2018-01-10T08:44:39.204Z,5.70
2018-01-10T08:47:07.443Z,5.70
2018-01-10T08:49:34.913Z,5.70
2018-01-10T08:52:02.404Z,5.80
2018-01-10T08:54:29.843Z,5.90
2018-01-10T08:56:58.106Z,6.00
2018-01-10T08:59:25.561Z,6.00
2018-01-10T09:01:53.023Z,6.10
2018-01-10T09:04:20.494Z,6.10
2018-01-10T09:06:48.750Z,6.10
2018-01-10T09:09:16.231Z,6.10
2018-01-10T09:11:44.471Z,6.00
2018-01-10T09:14:11.943Z,6.00
2018-01-10T09:16:39.404Z,6.10
2018-01-10T09:19:06.866Z,6.10
2018-01-10T09:21:34.340Z,6.20
2018-01-10T09:24:02.593Z,6.30
2018-01-10T09:26:30.068Z,6.40
2018-01-10T09:28:58.308Z,6.50
2018-01-10T09:31:25.782Z,6.50
2018-01-10T09:33:53.256Z,6.60
2018-01-10T09:36:22.483Z,6.70
2018-01-10T09:38:49.975Z,6.70
2018-01-10T09:41:17.452Z,6.80
2018-01-10T09:43:44.923Z,6.90
2018-01-10T09:46:13.160Z,7.00
2018-01-10T09:48:40.655Z,6.90
2018-01-10T09:51:08.960Z,7.20
2018-01-10T09:53:36.379Z,7.20
2018-01-10T09:56:03.873Z,7.20
2018-01-10T09:58:32.159Z,7.30
2018-01-10T10:01:00.402Z,7.30
2018-01-10T10:03:28.156Z,7.30
2018-01-10T10:05:59.535Z,7.10
2018-01-10T10:08:27.087Z,7.00
2018-01-10T10:10:54.640Z,7.00
2018-01-10T10:15:56.729Z,7.30
2018-01-10T10:18:24.226Z,7.30
2018-01-10T10:20:52.382Z,7.30
2018-01-10T10:23:19.884Z,7.30
2018-01-10T10:25:47.491Z,7.20
2018-01-10T10:28:15.159Z,7.30
2018-01-10T10:30:42.656Z,7.50
2018-01-10T10:33:10.163Z,7.60
2018-01-10T10:35:38.398Z,7.50
2018-01-10T10:38:05.856Z,7.50
2018-01-10T10:40:33.334Z,7.50
2018-01-10T10:43:00.824Z,7.40
2018-01-10T10:45:28.335Z,7.20
2018-01-10T10:47:56.628Z,7.00
2018-01-10T10:50:24.084Z,7.10
2018-01-10T10:52:52.310Z,7.00
2018-01-10T10:55:19.780Z,7.00
2018-01-10T10:57:47.262Z,7.00
2018-01-10T11:00:14.765Z,7.00
2018-01-10T11:02:42.244Z,7.00
2018-01-10T11:05:09.739Z,7.00
2018-01-10T11:07:37.212Z,7.20
2018-01-10T11:10:04.702Z,7.30
2018-01-10T11:12:32.198Z,7.20
2018-01-10T11:14:59.713Z,7.10
2018-01-10T11:17:27.216Z,7.00
2018-01-10T11:19:55.451Z,6.90
2018-01-10T11:22:22.944Z,6.80
2018-01-10T11:24:50.400Z,7.00
2018-01-10T11:27:18.474Z,7.00
2018-01-10T11:29:45.940Z,7.10
2018-01-10T11:32:13.403Z,7.00
2018-01-10T11:34:41.649Z,7.30
2018-01-10T11:37:09.118Z,7.30
2018-01-10T11:39:36.573Z,7.60
2018-01-10T11:42:04.049Z,8.00
2018-01-10T11:44:31.515Z,8.10
2018-01-10T11:46:59.002Z,8.50
2018-01-10T11:49:26.463Z,8.30
2018-01-10T11:51:53.928Z,8.40
2018-01-10T11:54:21.428Z,8.60
2018-01-10T11:56:49.660Z,9.40
2018-01-10T11:59:17.132Z,9.40
2018-01-10T12:01:44.607Z,9.60
2018-01-10T12:04:12.073Z,9.60
2018-01-10T12:06:39.526Z,9.50
2018-01-10T12:09:06.986Z,9.20
2018-01-10T12:11:34.459Z,8.60
2018-01-10T12:14:01.923Z,8.30
2018-01-10T12:16:29.373Z,8.30
2018-01-10T12:18:56.865Z,8.40
2018-01-10T12:21:24.315Z,8.30
2018-01-10T12:23:51.791Z,8.30
2018-01-10T12:26:19.281Z,8.30
2018-01-10T12:28:46.745Z,8.30
2018-01-10T12:31:14.222Z,8.30
2018-01-10T12:33:41.710Z,8.40
2018-01-10T12:36:09.282Z,8.60
2018-01-10T12:38:36.747Z,8.70
2018-01-10T12:41:04.251Z,8.80
2018-01-10T12:43:31.746Z,8.50
2018-01-10T12:45:59.204Z,8.50
2018-01-10T12:48:26.749Z,8.40
2018-01-10T12:50:54.232Z,8.10
2018-01-10T12:53:21.690Z,7.90
2018-01-10T12:55:49.184Z,7.80
2018-01-10T12:58:16.639Z,7.90
2018-01-10T13:00:44.894Z,8.30
2018-01-10T13:03:13.311Z,8.20
2018-01-10T13:05:41.001Z,8.50
2018-01-10T13:08:08.460Z,8.70
2018-01-10T13:10:35.917Z,8.80
2018-01-10T13:13:03.398Z,8.70
2018-01-10T13:15:30.874Z,8.60
2018-01-10T13:17:58.356Z,8.40
2018-01-10T13:20:25.840Z,8.40
2018-01-10T13:22:53.316Z,8.50
2018-01-10T13:25:20.772Z,8.50
2018-01-10T13:27:48.291Z,8.60
2018-01-10T13:30:15.795Z,8.80
2018-01-10T13:32:43.283Z,8.60
2018-01-10T13:35:10.751Z,8.50
2018-01-10T13:37:38.221Z,8.70
2018-01-10T13:40:06.496Z,9.00
2018-01-10T13:42:33.974Z,9.00
2018-01-10T13:45:01.445Z,9.10
2018-01-10T13:47:28.915Z,9.10
2018-01-10T13:49:56.387Z,8.90
2018-01-10T13:52:23.907Z,8.80
2018-01-10T13:54:51.388Z,8.50
2018-01-10T13:57:18.873Z,8.30
2018-01-10T13:59:46.336Z,8.20
2018-01-10T14:02:13.812Z,8.10
2018-01-10T14:04:42.075Z,7.90
2018-01-10T14:07:09.533Z,7.90
2018-01-10T14:09:37.044Z,7.90
2018-01-10T14:12:04.536Z,8.00
2018-01-10T14:14:32.017Z,8.10
2018-01-10T14:17:00.268Z,7.90
2018-01-10T14:19:28.568Z,7.80
2018-01-10T14:21:56.074Z,7.90
2018-01-10T14:24:23.534Z,7.80
2018-01-10T14:26:51.021Z,7.80
2018-01-10T14:29:19.289Z,7.70
2018-01-10T14:31:46.740Z,7.70
2018-01-10T14:34:14.214Z,7.60
2018-01-10T14:36:42.444Z,7.70
2018-01-10T14:39:09.905Z,7.50
2018-01-10T14:41:37.380Z,7.80
2018-01-10T14:44:04.904Z,7.80
2018-01-10T14:46:32.394Z,7.80
2018-01-10T14:48:59.863Z,7.80
2018-01-10T14:51:27.347Z,7.70
2018-01-10T14:53:55.785Z,7.60
2018-01-10T14:56:23.306Z,7.40
2018-01-10T14:58:50.795Z,7.40
2018-01-10T15:01:18.272Z,7.30
2018-01-10T15:03:46.504Z,7.20
2018-01-10T15:06:14.003Z,7.20
2018-01-10T15:08:41.463Z,7.20
2018-01-10T15:11:08.970Z,7.20
2018-01-10T15:13:36.434Z,7.10
2018-01-10T15:16:03.953Z,7.10
2018-01-10T15:18:31.458Z,7.10
2018-01-10T15:20:59.016Z,7.10
2018-01-10T15:23:26.513Z,7.00
2018-01-10T15:25:54.089Z,7.00
2018-01-10T15:28:21.435Z,7.00
2018-01-10T15:30:49.710Z,7.00
2018-01-10T15:33:17.213Z,7.00
2018-01-10T15:35:44.762Z,7.00
2018-01-10T15:38:12.237Z,7.10
2018-01-10T15:40:39.726Z,7.00
2018-01-10T15:43:07.212Z,7.00
2018-01-10T15:45:34.663Z,6.90
2018-01-10T15:48:02.199Z,7.00
2018-01-10T15:50:29.673Z,7.00
2018-01-10T15:52:57.203Z,7.10
2018-01-10T15:55:24.693Z,7.10
2018-01-10T15:57:52.956Z,7.00
2018-01-10T16:00:21.188Z,7.00
2018-01-10T16:02:48.713Z,7.00
2018-01-10T16:05:16.210Z,7.10
2018-01-10T16:07:43.660Z,7.10
2018-01-10T16:10:11.162Z,7.00
2018-01-10T16:12:38.624Z,7.00
2018-01-10T16:15:07.226Z,6.90
2018-01-10T16:17:35.449Z,6.90
2018-01-10T16:20:02.912Z,6.90
2018-01-10T16:22:30.373Z,6.90
2018-01-10T16:24:57.822Z,6.90
2018-01-10T16:27:25.307Z,6.90
2018-01-10T16:29:53.546Z,6.80
2018-01-10T16:32:21.018Z,6.80
2018-01-10T16:34:48.525Z,6.70
2018-01-10T16:37:16.032Z,6.60
2018-01-10T16:39:49.699Z,6.60
2018-01-10T16:42:17.169Z,6.60
2018-01-10T16:44:44.650Z,6.50
2018-01-10T16:47:12.149Z,6.60
2018-01-10T16:49:39.606Z,6.50
2018-01-10T16:52:07.072Z,6.50
2018-01-10T16:54:34.523Z,6.50
2018-01-10T16:57:01.988Z,6.40
2018-01-10T16:59:29.535Z,6.40
2018-01-10T17:01:57.817Z,6.40
2018-01-10T17:04:25.298Z,6.30
2018-01-10T17:06:52.766Z,6.30
2018-01-10T17:09:20.276Z,6.30
2018-01-10T17:11:48.587Z,6.30
2018-01-10T17:14:16.053Z,6.20
2018-01-10T17:16:43.535Z,6.10
2018-01-10T17:19:11.064Z,6.20
2018-01-10T17:21:38.546Z,6.20
2018-01-10T17:24:06.032Z,6.20
2018-01-10T17:26:33.506Z,6.20
2018-01-10T17:29:00.977Z,6.30
2018-01-10T17:31:28.469Z,6.20
2018-01-10T17:33:55.997Z,6.20
2018-01-10T17:36:23.483Z,6.10
2018-01-10T17:38:50.944Z,6.20
2018-01-10T17:41:18.852Z,6.10
2018-01-10T17:43:46.356Z,6.20
2018-01-10T17:46:13.859Z,6.10
2018-01-10T17:48:42.133Z,6.10
2018-01-10T17:51:10.376Z,6.20
2018-01-10T17:53:37.880Z,6.20
2018-01-10T17:56:06.104Z,6.10
2018-01-10T17:58:33.618Z,6.10
2018-01-10T18:01:01.873Z,5.90
2018-01-10T18:03:29.384Z,5.90
2018-01-10T18:05:56.888Z,5.80
2018-01-10T18:08:25.285Z,5.60
2018-01-10T18:10:52.772Z,5.60
2018-01-10T18:13:20.288Z,5.70
2018-01-10T18:15:47.754Z,5.60
2018-01-10T18:18:16.032Z,5.60
2018-01-10T18:20:44.282Z,5.60
2018-01-10T18:23:11.778Z,5.60
2018-01-10T18:25:39.290Z,5.60
2018-01-10T18:28:10.375Z,5.60
2018-01-10T18:30:37.915Z,5.60
2018-01-10T18:33:06.481Z,5.60
2018-01-10T18:35:34.011Z,5.50
2018-01-10T18:38:01.489Z,5.60
2018-01-10T18:40:28.970Z,5.60
2018-01-10T18:42:56.478Z,5.50
2018-01-10T18:45:24.750Z,5.60
2018-01-10T18:47:52.466Z,5.60
2018-01-10T18:50:20.728Z,5.70
2018-01-10T18:52:48.240Z,5.60
2018-01-10T18:55:15.786Z,5.70
2018-01-10T18:57:43.267Z,5.70
2018-01-10T19:00:10.822Z,5.60
2018-01-10T19:02:38.279Z,5.60
2018-01-10T19:05:05.797Z,5.60
2018-01-10T19:07:33.292Z,5.70
2018-01-10T19:10:00.785Z,5.70
2018-01-10T19:12:35.585Z,5.70
2018-01-10T19:15:03.164Z,5.60
2018-01-10T19:17:30.655Z,5.60
2018-01-10T19:19:58.165Z,5.70
2018-01-10T19:22:25.699Z,5.60
2018-01-10T19:24:53.178Z,8.90
2018-01-10T19:27:20.662Z,5.70
2018-01-10T19:29:48.150Z,5.60
2018-01-10T19:32:17.263Z,5.60
2018-01-10T19:34:44.751Z,5.60
2018-01-10T19:37:12.228Z,5.60
2018-01-10T19:39:39.723Z,5.70
2018-01-10T19:42:07.259Z,5.60
2018-01-10T19:44:34.758Z,5.70
2018-01-10T19:47:02.271Z,5.60
2018-01-10T19:49:29.771Z,5.60
2018-01-10T19:51:57.258Z,5.60
2018-01-10T19:54:24.765Z,5.60
2018-01-10T19:56:52.268Z,5.60
2018-01-10T19:59:19.756Z,5.70
2018-01-10T20:01:47.297Z,5.70
2018-01-10T20:04:14.773Z,5.70
2018-01-10T20:06:42.268Z,5.60
2018-01-10T20:09:09.785Z,5.70
2018-01-10T20:11:38.153Z,5.70
2018-01-10T20:14:05.636Z,5.70
2018-01-10T20:16:33.151Z,5.70
2018-01-10T20:19:00.639Z,5.60
2018-01-10T20:21:29.017Z,5.70
2018-01-10T20:23:56.499Z,5.70
2018-01-10T20:26:24.323Z,5.70
2018-01-10T20:28:51.817Z,5.70
2018-01-10T20:31:20.077Z,5.70
2018-01-10T20:33:47.567Z,5.60
2018-01-10T20:36:15.048Z,5.80
2018-01-10T20:38:42.541Z,5.70
2018-01-10T20:41:10.032Z,5.70
2018-01-10T20:43:37.779Z,5.70
2018-01-10T20:46:06.028Z,5.70
2018-01-10T20:48:33.517Z,5.70
2018-01-10T20:51:01.772Z,5.80
2018-01-10T20:53:29.228Z,5.70
2018-01-10T20:55:56.713Z,5.80
2018-01-10T20:58:24.207Z,5.90
2018-01-10T21:00:51.677Z,5.80
2018-01-10T21:03:19.187Z,6.00
2018-01-10T21:05:46.654Z,5.90
2018-01-10T21:08:14.105Z,5.90
2018-01-10T21:10:41.584Z,5.90
2018-01-10T21:13:09.075Z,5.80
2018-01-10T21:15:36.566Z,5.90
2018-01-10T21:18:04.042Z,5.80
2018-01-10T21:20:31.530Z,5.80
2018-01-10T21:22:58.988Z,5.70
2018-01-10T21:25:26.461Z,5.80
2018-01-10T21:27:53.931Z,5.80
2018-01-10T21:30:21.414Z,5.90
2018-01-10T21:32:48.884Z,5.80
2018-01-10T21:35:16.356Z,5.80
2018-01-10T21:37:43.845Z,5.80
2018-01-10T21:40:11.316Z,5.80
2018-01-10T21:42:38.788Z,5.80
2018-01-10T21:45:06.280Z,5.80
2018-01-10T21:47:33.802Z,5.60
2018-01-10T21:50:01.277Z,5.80
2018-01-10T21:52:28.768Z,5.80
2018-01-10T21:54:56.244Z,5.80
2018-01-10T21:57:23.711Z,5.70
2018-01-10T21:59:51.224Z,5.80
2018-01-10T22:02:18.722Z,5.70
2018-01-10T22:04:46.187Z,5.80
2018-01-10T22:07:13.661Z,5.90
2018-01-10T22:09:41.139Z,5.80
2018-01-10T22:12:08.613Z,5.80
2018-01-10T22:14:36.077Z,5.90
2018-01-10T22:17:03.575Z,5.80
2018-01-10T22:19:31.056Z,5.80
2018-01-10T22:21:58.532Z,6.00
2018-01-10T22:24:26.002Z,6.00
2018-01-10T22:26:53.479Z,6.00
2018-01-10T22:29:20.985Z,6.00
2018-01-10T22:31:49.227Z,5.90
2018-01-10T22:34:16.690Z,6.00
2018-01-10T22:36:44.164Z,6.00
2018-01-10T22:39:11.622Z,6.00
2018-01-10T22:41:39.108Z,6.00
2018-01-10T22:44:09.521Z,5.90
2018-01-10T22:46:36.969Z,6.00
2018-01-10T22:49:04.457Z,6.00
2018-01-10T22:51:31.952Z,6.10
2018-01-10T22:53:59.426Z,6.00
2018-01-10T22:56:26.878Z,6.10
2018-01-10T22:58:54.398Z,6.00
2018-01-10T23:01:21.876Z,6.10
2018-01-10T23:03:49.385Z,6.00
2018-01-10T23:06:16.896Z,5.90
2018-01-10T23:08:44.360Z,5.90
2018-01-10T23:11:11.838Z,6.00
2018-01-10T23:13:39.322Z,6.00
2018-01-10T23:16:06.774Z,6.00
2018-01-10T23:18:34.271Z,5.90
2018-01-10T23:21:01.756Z,5.90
2018-01-10T23:23:29.236Z,5.90
2018-01-10T23:25:56.693Z,5.80
2018-01-10T23:28:24.943Z,5.80
2018-01-10T23:30:52.409Z,5.40
2018-01-10T23:33:19.869Z,5.90
2018-01-10T23:35:47.362Z,5.90
2018-01-10T23:38:14.854Z,5.90
2018-01-10T23:40:42.357Z,5.90
2018-01-10T23:43:09.845Z,5.80
2018-01-10T23:45:37.342Z,5.80
2018-01-10T23:48:04.842Z,5.80
2018-01-10T23:50:32.391Z,5.80
2018-01-10T23:52:59.844Z,5.80
2018-01-10T23:55:28.066Z,5.80
2018-01-10T23:57:56.298Z,5.80
